createdAt,value
2019-06-18T00:00:26.511Z,12.60
2019-06-18T00:02:57.146Z,11.90
2019-06-18T00:05:27.783Z,11.33
2019-06-18T00:08:00.779Z,11.17
2019-06-18T00:10:31.021Z,10.43
2019-06-18T00:13:01.742Z,10.70
2019-06-18T00:15:43.937Z,11.23
2019-06-18T00:18:04.950Z,10.87
2019-06-18T00:20:35.612Z,11.07
2019-06-18T00:23:06.254Z,11.73
2019-06-18T00:25:37.026Z,10.87
2019-06-18T00:28:10.199Z,11.20
2019-06-18T00:30:42.117Z,11.50
2019-06-18T00:33:12.781Z,10.87
2019-06-18T00:35:43.432Z,10.60
2019-06-18T00:38:14.086Z,10.67
2019-06-18T00:40:44.741Z,11.53
2019-06-18T00:43:18.026Z,10.73
2019-06-18T00:45:59.482Z,11.50
2019-06-18T00:48:20.461Z,10.67
2019-06-18T00:50:51.137Z,10.27
2019-06-18T00:53:21.766Z,11.33
2019-06-18T00:55:52.526Z,10.77
2019-06-18T00:58:23.157Z,12.20
2019-06-18T01:00:53.799Z,10.40
2019-06-18T01:03:26.418Z,11.43
2019-06-18T01:05:57.571Z,11.70
2019-06-18T01:08:28.354Z,11.37
2019-06-18T01:10:59.114Z,10.80
2019-06-18T01:13:29.766Z,11.60
2019-06-18T01:16:15.823Z,10.33
2019-06-18T01:18:33.002Z,10.33
2019-06-18T01:21:03.667Z,10.00
2019-06-18T01:23:34.327Z,11.67
2019-06-18T01:26:04.970Z,11.20
2019-06-18T01:28:35.635Z,11.67
2019-06-18T01:31:06.290Z,11.00
2019-06-18T01:33:36.942Z,10.83
2019-06-18T01:36:07.592Z,10.30
2019-06-18T01:38:38.230Z,9.80
2019-06-18T01:41:08.896Z,10.93
2019-06-18T01:43:39.521Z,10.00
2019-06-18T01:46:12.820Z,9.83
2019-06-18T01:48:43.020Z,11.47
2019-06-18T01:51:13.982Z,10.17
2019-06-18T01:53:44.827Z,10.00
2019-06-18T01:56:15.548Z,10.87
2019-06-18T01:58:46.208Z,11.13
2019-06-18T02:01:17.058Z,10.00
2019-06-18T02:03:47.742Z,11.03
2019-06-18T02:06:18.455Z,10.40
2019-06-18T02:08:49.107Z,10.73
2019-06-18T02:11:19.754Z,11.30
2019-06-18T02:13:53.074Z,10.87
2019-06-18T02:16:24.203Z,10.60
2019-06-18T02:18:54.919Z,11.47
2019-06-18T02:21:25.577Z,10.07
2019-06-18T02:23:56.218Z,10.87
2019-06-18T02:26:29.907Z,10.07
2019-06-18T02:29:02.666Z,12.20
2019-06-18T02:31:34.962Z,10.07
2019-06-18T02:34:06.187Z,9.93
2019-06-18T02:36:36.841Z,10.37
2019-06-18T02:39:07.482Z,10.27
2019-06-18T02:41:38.341Z,10.47
2019-06-18T02:44:09.097Z,10.27
2019-06-18T02:46:42.490Z,11.07
2019-06-18T02:49:13.292Z,10.10
2019-06-18T02:51:44.003Z,10.37
2019-06-18T02:54:14.857Z,10.50
2019-06-18T02:56:45.530Z,11.30
2019-06-18T02:59:16.180Z,10.60
2019-06-18T03:01:48.717Z,11.10
2019-06-18T03:04:19.360Z,10.90
2019-06-18T03:06:52.456Z,11.00
2019-06-18T03:09:22.642Z,11.83
2019-06-18T03:11:53.660Z,10.87
2019-06-18T03:14:25.447Z,10.93
2019-06-18T03:16:56.216Z,11.57
2019-06-18T03:19:26.848Z,10.70
2019-06-18T03:21:57.497Z,10.63
2019-06-18T03:24:28.129Z,11.60
2019-06-18T03:26:59.137Z,11.27
2019-06-18T03:29:29.970Z,10.80
2019-06-18T03:32:04.414Z,12.00
2019-06-18T03:34:35.938Z,11.53
2019-06-18T03:37:06.172Z,11.80
2019-06-18T03:39:36.799Z,12.23
2019-06-18T03:42:07.473Z,11.50
2019-06-18T03:44:38.227Z,11.93
2019-06-18T03:47:08.870Z,11.47
2019-06-18T03:49:39.503Z,11.87
2019-06-18T03:52:10.162Z,11.20
2019-06-18T03:54:42.883Z,11.40
2019-06-18T03:57:13.685Z,10.37
2019-06-18T03:59:44.556Z,11.47
2019-06-18T04:02:15.191Z,10.83
2019-06-18T04:04:47.592Z,11.20
2019-06-18T04:07:18.474Z,10.77
2019-06-18T04:09:49.207Z,12.13
2019-06-18T04:12:22.554Z,10.97
2019-06-18T04:14:53.402Z,10.70
2019-06-18T04:17:24.033Z,10.73
2019-06-18T04:19:54.686Z,10.40
2019-06-18T04:22:25.337Z,10.10
2019-06-18T04:24:56.047Z,11.27
2019-06-18T04:27:26.740Z,10.60
2019-06-18T04:29:57.405Z,10.17
2019-06-18T04:32:28.076Z,10.37
2019-06-18T04:34:58.802Z,10.77
2019-06-18T04:37:29.436Z,10.50
2019-06-18T04:40:00.103Z,11.17
2019-06-18T04:42:33.052Z,10.47
2019-06-18T04:45:04.589Z,10.40
2019-06-18T04:47:35.223Z,11.17
2019-06-18T04:50:05.962Z,10.20
2019-06-18T04:52:36.611Z,11.80
2019-06-18T04:55:07.259Z,12.03
2019-06-18T04:57:37.893Z,11.43
2019-06-18T05:00:08.834Z,12.20
2019-06-18T05:02:39.459Z,10.77
2019-06-18T05:05:12.912Z,11.10
2019-06-18T05:07:42.850Z,11.70
2019-06-18T05:10:13.493Z,11.10
2019-06-18T05:12:44.135Z,10.83
2019-06-18T05:15:16.695Z,10.57
2019-06-18T05:17:47.388Z,11.10
2019-06-18T05:20:18.137Z,11.90
2019-06-18T05:22:48.879Z,12.37
2019-06-18T05:25:19.622Z,12.10
2019-06-18T05:27:52.562Z,11.83
2019-06-18T05:30:22.827Z,11.20
2019-06-18T05:32:53.488Z,12.17
2019-06-18T05:35:24.132Z,11.30
2019-06-18T05:37:54.763Z,13.00
2019-06-18T05:40:25.417Z,11.60
2019-06-18T05:42:56.041Z,11.73
2019-06-18T05:45:26.682Z,12.03
2019-06-18T05:47:57.325Z,11.97
2019-06-18T05:50:27.962Z,12.07
2019-06-18T05:52:58.626Z,10.77
2019-06-18T05:55:29.322Z,11.00
2019-06-18T05:58:02.293Z,11.03
2019-06-18T06:00:34.365Z,10.87
2019-06-18T06:03:05.181Z,11.53
2019-06-18T06:05:35.842Z,11.90
2019-06-18T06:08:06.478Z,11.83
2019-06-18T06:10:37.132Z,11.77
2019-06-18T06:13:07.807Z,11.53
2019-06-18T06:15:38.507Z,12.30
2019-06-18T06:18:09.178Z,11.40
2019-06-18T06:20:39.816Z,12.07
2019-06-18T06:23:12.699Z,11.37
2019-06-18T06:25:43.033Z,10.60
2019-06-18T06:28:13.659Z,11.50
2019-06-18T06:30:44.318Z,11.20
2019-06-18T06:33:14.964Z,12.83
2019-06-18T06:35:45.695Z,12.27
2019-06-18T06:38:16.346Z,11.37
2019-06-18T06:40:47.087Z,12.10
2019-06-18T06:43:17.715Z,11.83
2019-06-18T06:45:48.363Z,11.27
2019-06-18T06:48:18.998Z,11.77
2019-06-18T06:50:52.139Z,13.00
2019-06-18T06:53:23.468Z,13.13
2019-06-18T06:55:54.370Z,12.37
2019-06-18T06:58:29.501Z,12.73
2019-06-18T07:00:57.549Z,13.33
2019-06-18T07:03:28.192Z,11.70
2019-06-18T07:05:58.835Z,13.70
2019-06-18T07:08:29.475Z,12.40
2019-06-18T07:11:00.129Z,12.33
2019-06-18T07:13:33.664Z,12.53
2019-06-18T07:16:03.604Z,13.13
2019-06-18T07:18:34.442Z,13.67
2019-06-18T07:21:05.096Z,12.03
2019-06-18T07:23:35.722Z,12.73
2019-06-18T07:26:06.367Z,12.40
2019-06-18T07:28:37.029Z,12.70
2019-06-18T07:31:07.775Z,12.80
2019-06-18T07:33:38.543Z,13.17
2019-06-18T07:36:09.187Z,12.30
2019-06-18T07:38:39.834Z,12.90
2019-06-18T07:41:10.490Z,12.93
2019-06-18T07:43:42.437Z,13.17
2019-06-18T07:46:14.473Z,12.17
2019-06-18T07:48:45.111Z,12.17
2019-06-18T07:51:15.765Z,14.20
2019-06-18T07:53:46.501Z,14.00
2019-06-18T07:56:17.139Z,13.83
2019-06-18T07:58:47.787Z,14.33
2019-06-18T08:01:18.826Z,13.60
2019-06-18T08:03:49.474Z,13.60
2019-06-18T08:06:22.267Z,14.30
2019-06-18T08:08:53.221Z,13.57
2019-06-18T08:11:24.162Z,13.37
2019-06-18T08:13:54.829Z,13.80
2019-06-18T08:16:25.585Z,12.70
2019-06-18T08:18:56.339Z,13.30
2019-06-18T08:21:26.975Z,14.40
2019-06-18T08:23:57.607Z,13.10
2019-06-18T08:26:28.238Z,13.73
2019-06-18T08:28:58.889Z,13.73
2019-06-18T08:31:32.762Z,13.00
2019-06-18T08:34:03.370Z,13.80
2019-06-18T08:36:34.349Z,15.20
2019-06-18T08:39:05.593Z,13.23
2019-06-18T08:41:36.242Z,13.67
2019-06-18T08:44:06.884Z,13.60
2019-06-18T08:46:37.527Z,13.73
2019-06-18T08:49:08.157Z,14.77
2019-06-18T08:51:38.794Z,14.23
2019-06-18T08:54:09.421Z,14.80
2019-06-18T08:56:42.361Z,14.17
2019-06-18T08:59:13.565Z,14.80
2019-06-18T09:01:44.492Z,13.77
2019-06-18T09:04:15.325Z,14.30
2019-06-18T09:06:45.962Z,14.10
2019-06-18T09:09:16.605Z,14.33
2019-06-18T09:11:47.234Z,13.90
2019-06-18T09:14:17.878Z,14.60
2019-06-18T09:16:48.538Z,14.40
2019-06-18T09:19:19.190Z,15.13
2019-06-18T09:21:52.248Z,15.07
2019-06-18T09:24:22.817Z,15.10
2019-06-18T09:26:53.640Z,14.50
2019-06-18T09:29:24.281Z,14.93
2019-06-18T09:31:54.943Z,15.17
2019-06-18T09:34:25.589Z,13.90
2019-06-18T09:36:56.322Z,13.93
2019-06-18T09:39:27.094Z,15.83
2019-06-18T09:41:57.735Z,15.07
2019-06-18T09:44:28.390Z,16.20
2019-06-18T09:46:59.017Z,15.00
2019-06-18T09:49:32.497Z,15.73
2019-06-18T09:52:02.510Z,14.80
2019-06-18T09:54:33.365Z,15.50
2019-06-18T09:57:03.998Z,16.70
2019-06-18T09:59:37.125Z,15.70
2019-06-18T10:02:55.348Z,16.07
2019-06-18T10:05:26.002Z,15.83
2019-06-18T10:07:57.303Z,16.60
2019-06-18T10:10:27.955Z,17.07
2019-06-18T10:12:58.612Z,17.60
2019-06-18T10:15:29.274Z,15.27
2019-06-18T10:17:59.980Z,15.90
2019-06-18T10:20:33.014Z,16.67
2019-06-18T10:23:03.490Z,16.50
2019-06-18T10:25:34.126Z,14.93
2019-06-18T10:28:04.808Z,14.90
2019-06-18T10:30:35.449Z,14.80
2019-06-18T10:33:06.074Z,14.50
2019-06-18T10:35:37.048Z,14.90
2019-06-18T10:38:07.776Z,14.20
2019-06-18T10:40:38.415Z,13.63
2019-06-18T10:43:09.321Z,13.63
2019-06-18T10:45:42.483Z,12.80
2019-06-18T10:48:13.118Z,14.10
2019-06-18T10:50:43.975Z,15.00
2019-06-18T10:53:14.593Z,14.17
2019-06-18T10:55:45.254Z,15.17
2019-06-18T10:58:15.995Z,13.53
2019-06-18T11:00:46.726Z,13.63
2019-06-18T11:03:17.357Z,14.47
2019-06-18T11:05:48.026Z,15.30
2019-06-18T11:08:18.852Z,13.70
2019-06-18T11:10:49.592Z,14.90
2019-06-18T11:13:20.238Z,14.03
2019-06-18T11:15:50.883Z,12.97
2019-06-18T11:18:22.727Z,13.73
2019-06-18T11:20:53.598Z,14.43
2019-06-18T11:23:33.681Z,14.80
2019-06-18T11:25:56.824Z,12.90
2019-06-18T11:28:27.450Z,15.37
2019-06-18T11:30:58.117Z,14.20
2019-06-18T11:33:28.748Z,13.93
2019-06-18T11:35:59.490Z,13.80
2019-06-18T11:38:30.122Z,14.13
2019-06-18T11:41:02.905Z,14.07
2019-06-18T11:43:33.311Z,14.50
2019-06-18T11:46:03.948Z,14.03
2019-06-18T11:48:34.603Z,13.87
2019-06-18T11:51:05.383Z,14.80
2019-06-18T11:53:37.090Z,15.33
2019-06-18T11:56:07.778Z,13.73
2019-06-18T11:58:38.482Z,13.93
2019-06-18T12:01:09.148Z,13.53
2019-06-18T12:03:39.895Z,14.03
2019-06-18T12:06:12.644Z,13.27
2019-06-18T12:08:43.110Z,13.23
2019-06-18T12:11:13.842Z,13.50
2019-06-18T12:13:44.490Z,13.70
2019-06-18T12:16:15.146Z,12.90
2019-06-18T12:18:45.774Z,13.03
2019-06-18T12:21:17.464Z,12.50
2019-06-18T12:23:48.107Z,13.40
2019-06-18T12:26:18.798Z,13.23
2019-06-18T12:28:52.641Z,12.90
2019-06-18T12:31:23.053Z,12.90
2019-06-18T12:33:54.725Z,12.90
2019-06-18T12:36:25.364Z,13.20
2019-06-18T12:38:56.001Z,12.40
2019-06-18T12:41:26.646Z,12.53
2019-06-18T12:43:57.287Z,12.47
2019-06-18T12:46:27.957Z,13.73
2019-06-18T12:48:58.870Z,12.70
2019-06-18T12:51:29.539Z,12.77
2019-06-18T12:54:08.240Z,12.33
2019-06-18T12:56:33.258Z,11.60
2019-06-18T12:59:21.942Z,12.07
2019-06-18T13:02:13.256Z,11.53
2019-06-18T13:04:44.068Z,11.10
2019-06-18T13:07:14.896Z,11.20
2019-06-18T13:09:45.647Z,12.33
2019-06-18T13:12:16.424Z,11.17
2019-06-18T13:14:47.190Z,10.60
2019-06-18T13:17:17.989Z,11.70
2019-06-18T13:19:48.751Z,10.70
2019-06-18T13:22:19.527Z,10.70
2019-06-18T13:24:56.610Z,10.77
2019-06-18T13:27:25.699Z,11.70
2019-06-18T13:29:56.468Z,11.87
2019-06-18T13:32:27.233Z,11.67
2019-06-18T13:34:58.012Z,11.97
2019-06-18T13:37:28.804Z,11.87
2019-06-18T13:39:59.569Z,10.80
2019-06-18T13:42:33.108Z,11.77
2019-06-18T13:45:05.341Z,10.77
2019-06-18T13:47:36.107Z,11.30
2019-06-18T13:50:07.370Z,11.03
2019-06-18T13:52:38.223Z,10.60
2019-06-18T13:55:09.098Z,10.33
2019-06-18T13:57:42.775Z,10.43
2019-06-18T14:00:14.091Z,10.57
2019-06-18T14:02:45.067Z,11.07
2019-06-18T14:05:16.034Z,11.43
2019-06-18T14:07:46.796Z,11.50
2019-06-18T14:10:17.664Z,11.33
2019-06-18T14:12:48.455Z,11.20
2019-06-18T14:15:19.416Z,10.80
2019-06-18T14:17:53.227Z,11.13
2019-06-18T14:20:23.526Z,12.13
2019-06-18T14:22:54.308Z,10.97
2019-06-18T14:25:25.089Z,10.90
2019-06-18T14:27:55.878Z,11.03
2019-06-18T14:30:26.640Z,10.80
2019-06-18T14:32:57.411Z,11.40
2019-06-18T14:35:31.578Z,10.40
2019-06-18T14:38:00.899Z,10.67
2019-06-18T14:40:33.735Z,10.93
2019-06-18T14:43:04.366Z,10.53
2019-06-18T14:45:38.516Z,10.40
2019-06-18T14:48:08.891Z,9.70
2019-06-18T14:50:39.657Z,9.93
2019-06-18T14:53:10.428Z,9.80
2019-06-18T14:55:42.995Z,9.50
2019-06-18T14:58:13.869Z,9.80
2019-06-18T15:00:44.632Z,9.97
2019-06-18T15:03:15.409Z,11.07
2019-06-18T15:05:46.161Z,10.80
2019-06-18T15:08:17.032Z,9.83
2019-06-18T15:10:47.788Z,9.80
2019-06-18T15:13:18.584Z,9.33
2019-06-18T15:15:49.331Z,9.87
2019-06-18T15:18:20.115Z,9.77
2019-06-18T15:20:52.719Z,9.27
2019-06-18T15:23:23.552Z,9.40
2019-06-18T15:26:03.590Z,9.80
2019-06-18T15:28:27.022Z,9.87
2019-06-18T15:30:57.793Z,9.60
2019-06-18T15:33:28.550Z,9.80
2019-06-18T15:35:59.329Z,9.03
2019-06-18T15:38:32.557Z,9.63
2019-06-18T15:41:03.123Z,15.27
2019-06-18T15:43:34.056Z,9.20
2019-06-18T15:46:04.816Z,8.93
2019-06-18T15:48:35.588Z,8.90
2019-06-18T15:51:06.360Z,8.90
2019-06-18T15:53:37.137Z,8.77
2019-06-18T15:56:07.904Z,9.23
2019-06-18T15:58:38.663Z,10.30
2019-06-18T16:01:16.655Z,14.80
2019-06-18T16:03:43.251Z,10.73
2019-06-18T16:06:14.431Z,9.53
2019-06-18T16:08:45.228Z,10.50
2019-06-18T16:11:16.012Z,9.40
2019-06-18T16:13:46.800Z,10.03
2019-06-18T16:16:17.581Z,9.50
2019-06-18T16:18:48.346Z,10.03
2019-06-18T16:21:19.125Z,9.30
2019-06-18T16:23:52.081Z,9.47
2019-06-18T16:26:23.100Z,10.17
2019-06-18T16:28:53.911Z,9.30
2019-06-18T16:31:24.702Z,9.43
2019-06-18T16:33:55.503Z,9.07
2019-06-18T16:36:26.279Z,10.00
2019-06-18T16:38:57.030Z,9.20
2019-06-18T16:41:27.923Z,9.47
2019-06-18T16:43:58.734Z,9.30
2019-06-18T16:46:29.645Z,9.47
2019-06-18T16:49:03.303Z,8.73
2019-06-18T16:51:33.296Z,9.37
2019-06-18T16:54:04.068Z,9.30
2019-06-18T16:56:34.853Z,9.93
2019-06-18T16:59:05.621Z,9.60
2019-06-18T17:01:36.403Z,9.83
2019-06-18T17:04:07.201Z,9.83
2019-06-18T17:06:37.970Z,10.30
2019-06-18T17:09:09.475Z,10.03
2019-06-18T17:11:42.823Z,9.90
2019-06-18T17:14:12.996Z,10.60
2019-06-18T17:16:43.867Z,10.07
2019-06-18T17:19:14.631Z,9.67
2019-06-18T17:21:45.446Z,10.50
2019-06-18T17:24:16.235Z,10.73
2019-06-18T17:26:48.429Z,10.30
2019-06-18T17:29:19.464Z,12.30
2019-06-18T17:31:50.231Z,9.73
2019-06-18T17:34:23.297Z,9.40
2019-06-18T17:36:53.786Z,10.40
2019-06-18T17:39:24.539Z,9.80
2019-06-18T17:41:55.340Z,11.13
2019-06-18T17:44:26.109Z,10.37
2019-06-18T17:46:56.931Z,10.00
2019-06-18T17:49:27.736Z,9.07
2019-06-18T17:51:58.516Z,9.70
2019-06-18T17:54:29.326Z,9.23
2019-06-18T17:57:02.624Z,10.13
2019-06-18T17:59:33.088Z,10.53
2019-06-18T18:02:03.956Z,11.03
2019-06-18T18:04:36.667Z,10.17
2019-06-18T18:07:07.408Z,9.83
2019-06-18T18:09:38.176Z,10.27
2019-06-18T18:12:08.958Z,11.60
2019-06-18T18:14:39.746Z,11.00
2019-06-18T18:17:19.395Z,10.90
2019-06-18T18:19:43.185Z,10.77
2019-06-18T18:22:13.966Z,9.80
2019-06-18T18:24:44.717Z,9.63
2019-06-18T18:27:15.483Z,9.93
2019-06-18T18:29:46.274Z,11.53
2019-06-18T18:32:17.035Z,11.40
2019-06-18T18:34:47.809Z,10.00
2019-06-18T18:37:19.639Z,10.30
2019-06-18T18:39:52.226Z,10.20
2019-06-18T18:42:23.391Z,9.77
2019-06-18T18:44:54.288Z,9.90
2019-06-18T18:47:25.195Z,9.67
2019-06-18T18:49:55.930Z,9.90
2019-06-18T18:52:26.724Z,10.67
2019-06-18T18:54:57.499Z,11.43
2019-06-18T18:57:28.317Z,12.10
2019-06-18T19:00:03.986Z,9.63
2019-06-18T19:02:33.665Z,10.40
2019-06-18T19:05:05.324Z,9.63
2019-06-18T19:07:36.109Z,10.40
2019-06-18T19:10:08.252Z,10.40
2019-06-18T19:12:39.023Z,10.43
2019-06-18T19:15:12.483Z,10.83
2019-06-18T19:17:44.015Z,11.10
2019-06-18T19:20:14.785Z,11.43
2019-06-18T19:22:45.596Z,12.30
2019-06-18T19:25:16.451Z,12.00
2019-06-18T19:27:47.214Z,13.00
2019-06-18T19:30:18.007Z,12.23
2019-06-18T19:32:49.785Z,12.40
2019-06-18T19:35:20.555Z,12.77
2019-06-18T19:37:52.934Z,11.13
2019-06-18T19:40:23.891Z,11.23
2019-06-18T19:42:54.671Z,11.40
2019-06-18T19:45:25.436Z,10.33
2019-06-18T19:47:56.221Z,11.17
2019-06-18T19:50:26.980Z,10.93
2019-06-18T19:52:57.768Z,10.90
2019-06-18T19:55:28.568Z,11.23
2019-06-18T19:57:59.349Z,11.23
2019-06-18T20:00:32.377Z,11.40
2019-06-18T20:03:03.222Z,11.87
2019-06-18T20:05:34.055Z,11.53
2019-06-18T20:08:04.844Z,12.40
2019-06-18T20:10:35.615Z,13.07
2019-06-18T20:13:06.780Z,12.00
2019-06-18T20:15:37.662Z,11.80
2019-06-18T20:18:39.437Z,12.37
2019-06-18T20:21:12.670Z,11.30
2019-06-18T20:23:43.470Z,11.70
2019-06-18T20:26:14.550Z,12.20
2019-06-18T20:28:45.324Z,11.60
2019-06-18T20:31:16.114Z,12.57
2019-06-18T20:33:46.884Z,10.80
2019-06-18T20:36:17.668Z,11.60
2019-06-18T20:38:48.463Z,11.57
2019-06-18T20:41:19.292Z,11.50
2019-06-18T20:43:50.138Z,11.60
2019-06-18T20:46:23.111Z,12.20
2019-06-18T20:48:54.010Z,12.80
2019-06-18T20:51:24.799Z,12.47
2019-06-18T20:53:55.574Z,11.73
2019-06-18T20:56:26.337Z,11.73
2019-06-18T20:58:57.106Z,12.30
2019-06-18T21:01:27.867Z,12.60
2019-06-18T21:03:59.080Z,13.53
2019-06-18T21:06:32.161Z,12.57
2019-06-18T21:09:04.786Z,13.60
2019-06-18T21:11:35.745Z,13.67
2019-06-18T21:14:07.116Z,12.50
2019-06-18T21:16:37.878Z,12.67
2019-06-18T21:19:08.658Z,12.37
2019-06-18T21:21:39.422Z,11.50
2019-06-18T21:24:12.445Z,11.80
2019-06-18T21:26:42.925Z,12.37
2019-06-18T21:29:13.691Z,11.23
2019-06-18T21:31:44.472Z,12.67
2019-06-18T21:34:15.267Z,11.90
2019-06-18T21:36:46.041Z,11.97
2019-06-18T21:39:16.818Z,12.57
2019-06-18T21:41:47.609Z,11.30
2019-06-18T21:44:18.389Z,12.03
2019-06-18T21:46:49.175Z,12.33
2019-06-18T21:49:19.961Z,12.47
2019-06-18T21:51:50.728Z,12.17
2019-06-18T21:54:23.082Z,12.70
2019-06-18T21:56:54.289Z,12.70
2019-06-18T21:59:25.076Z,12.23
2019-06-18T22:01:55.954Z,12.23
2019-06-18T22:04:26.762Z,12.70
2019-06-18T22:06:57.533Z,13.13
2019-06-18T22:09:28.323Z,12.33
2019-06-18T22:11:59.083Z,12.50
2019-06-18T22:14:32.240Z,11.80
2019-06-18T22:17:02.804Z,12.07
2019-06-18T22:19:33.783Z,10.93
2019-06-18T22:22:04.550Z,11.50
2019-06-18T22:24:35.316Z,12.70
2019-06-18T22:27:06.076Z,12.03
2019-06-18T22:29:36.879Z,12.00
2019-06-18T22:32:07.638Z,12.30
2019-06-18T22:34:38.455Z,13.37
2019-06-18T22:37:09.222Z,12.40
2019-06-18T22:39:42.394Z,11.80
2019-06-18T22:42:12.723Z,12.57
2019-06-18T22:44:43.848Z,12.10
2019-06-18T22:47:14.666Z,12.37
2019-06-18T22:49:45.432Z,11.90
2019-06-18T22:52:17.319Z,12.07
2019-06-18T22:54:48.075Z,12.47
2019-06-18T22:57:18.867Z,11.53
2019-06-18T22:59:49.622Z,11.70
2019-06-18T23:02:20.417Z,12.70
2019-06-18T23:04:53.052Z,12.20
2019-06-18T23:07:23.867Z,11.90
2019-06-18T23:09:54.679Z,12.37
2019-06-18T23:12:25.441Z,11.30
2019-06-18T23:14:56.289Z,13.47
2019-06-18T23:17:27.318Z,11.67
2019-06-18T23:19:58.075Z,11.60
2019-06-18T23:22:28.865Z,12.00
2019-06-18T23:25:02.170Z,13.37
2019-06-18T23:27:32.691Z,11.80
2019-06-18T23:30:05.371Z,11.50
2019-06-18T23:32:36.142Z,11.20
2019-06-18T23:35:09.845Z,12.57
2019-06-18T23:37:39.687Z,12.70
2019-06-18T23:40:12.528Z,12.30
2019-06-18T23:42:44.051Z,10.80
2019-06-18T23:45:15.083Z,11.30
2019-06-18T23:47:45.860Z,11.80
2019-06-18T23:50:16.634Z,12.13
2019-06-18T23:52:47.435Z,11.57
2019-06-18T23:55:18.227Z,11.40
2019-06-18T23:57:49.004Z,11.20
